Time;durP1;ratioP1;P1;durP2;ratioP2;P2;SDS_P1;SDS_P2;PMS_P1;PMS_P2;Temp;Humidity;BMP_temperature;BMP_pressure;BME280_temperature;BME280_humidity;BME280_pressure;Samples;Min_cycle;Max_cycle;Signal;HPM_P1;HPM_P2
2023/05/09 00:00:16;;;;;;;137.13;59.97;;;;;;;17.75;48.89;101906.34;5035383;28;20036;-70
2023/05/09 00:02:44;;;;;;;138.15;59.42;;;;;;;17.75;49.10;101903.69;5064074;28;20025;-70
2023/05/09 00:05:10;;;;;;;152.40;61.38;;;;;;;17.76;49.14;101899.31;5048925;28;20031;-71
2023/05/09 00:07:39;;;;;;;134.75;58.60;;;;;;;17.74;48.91;101899.34;5066109;28;20077;-70
2023/05/09 00:10:05;;;;;;;137.18;59.28;;;;;;;17.74;48.78;101896.72;5064149;28;20020;-71
2023/05/09 00:12:30;;;;;;;137.73;59.50;;;;;;;17.72;49.77;101902.03;5068411;28;20374;-71
2023/05/09 00:14:55;;;;;;;137.75;59.40;;;;;;;17.72;49.44;101898.50;5063128;28;20516;-71
2023/05/09 00:17:25;;;;;;;137.45;59.28;;;;;;;17.72;50.65;101893.22;5067084;28;20082;-70
2023/05/09 00:19:54;;;;;;;136.07;59.42;;;;;;;17.73;50.56;101895.81;5025550;28;20024;-72
2023/05/09 00:22:22;;;;;;;136.43;59.35;;;;;;;17.73;51.25;101890.53;5053636;28;20025;-70
2023/05/09 00:24:54;;;;;;;137.05;61.53;;;;;;;17.73;50.44;101885.25;5054219;28;20028;-70
2023/05/09 00:27:19;;;;;;;137.90;59.63;;;;;;;17.72;50.32;101882.66;5029416;28;20025;-71
2023/05/09 00:29:48;;;;;;;139.73;61.45;;;;;;;17.71;50.59;101880.91;5040043;28;20033;-69
2023/05/09 00:32:13;;;;;;;137.98;61.15;;;;;;;17.70;49.50;101880.06;5033559;28;20068;-70
2023/05/09 00:34:39;;;;;;;141.75;62.17;;;;;;;17.68;49.89;101875.72;5033028;28;20493;-71
2023/05/09 00:37:05;;;;;;;145.75;62.72;;;;;;;17.67;49.68;101866.94;5042337;28;20021;-71
2023/05/09 00:39:34;;;;;;;137.27;59.25;;;;;;;17.68;50.28;101866.03;5040566;28;20023;-71
2023/05/09 00:41:59;;;;;;;136.75;59.75;;;;;;;17.68;50.15;101860.75;5037295;28;20037;-71
2023/05/09 00:44:31;;;;;;;133.40;58.53;;;;;;;17.67;49.94;101866.94;5030926;28;20629;-71
2023/05/09 00:46:57;;;;;;;137.38;58.85;;;;;;;17.66;49.87;101862.56;5022480;28;20049;-72
2023/05/09 00:49:22;;;;;;;139.18;59.85;;;;;;;17.66;49.95;101859.06;5044223;28;20542;-71
2023/05/09 00:51:48;;;;;;;148.30;64.90;;;;;;;17.65;50.58;101855.53;5040914;28;20037;-70
2023/05/09 00:54:13;;;;;;;154.15;64.80;;;;;;;17.65;49.76;101846.75;5036341;28;20451;-71
2023/05/09 00:56:42;;;;;;;139.50;63.53;;;;;;;17.64;49.90;101852.94;5044275;28;20081;-70
2023/05/09 00:59:07;;;;;;;138.93;60.33;;;;;;;17.62;49.62;101845.06;5024279;28;20059;-71
2023/05/09 01:01:33;;;;;;;137.07;61.75;;;;;;;17.63;49.98;101840.63;5037903;28;20028;-70
2023/05/09 01:03:58;;;;;;;139.50;59.90;;;;;;;17.61;50.38;101838.03;5049706;28;20035;-71
2023/05/09 01:06:51;;;;;;;137.55;61.47;;;;;;;17.62;49.93;101834.50;5048624;28;20140;-71
2023/05/09 01:09:43;;;;;;;135.35;58.92;;;;;;;17.62;50.42;101825.72;5039094;28;20498;-71
2023/05/09 01:12:33;;;;;;;139.48;63.40;;;;;;;17.61;50.75;101821.34;5056792;28;20032;-71
2023/05/09 01:15:24;;;;;;;138.20;60.58;;;;;;;17.61;50.19;101819.53;5049838;28;20032;-72
2023/05/09 01:18:02;;;;;;;138.02;61.50;;;;;;;17.60;50.92;101809.91;5038592;28;20128;-71
2023/05/09 01:20:44;;;;;;;141.73;63.03;;;;;;;17.59;50.51;101808.16;5057145;28;20103;-71
2023/05/09 01:23:26;;;;;;;136.05;57.70;;;;;;;17.58;50.54;101803.78;5061257;28;20028;-71
2023/05/09 01:26:02;;;;;;;153.77;61.88;;;;;;;17.58;50.30;101802.00;5066157;28;20103;-71
2023/05/09 01:29:00;;;;;;;140.32;58.45;;;;;;;17.57;51.18;101791.47;5041030;28;20040;-71
2023/05/09 01:31:25;;;;;;;137.10;60.00;;;;;;;17.56;50.99;101798.56;5039966;28;20036;-71
2023/05/09 01:33:55;;;;;;;139.88;60.00;;;;;;;17.56;51.17;101800.31;5030608;28;20029;-71
2023/05/09 01:36:20;;;;;;;150.35;62.00;;;;;;;17.55;50.69;101794.16;5029934;28;20033;-71
2023/05/09 01:38:49;;;;;;;139.07;58.03;;;;;;;17.54;50.89;101799.50;5066255;28;20575;-71
2023/05/09 01:41:15;;;;;;;139.82;58.05;;;;;;;17.54;50.42;101799.50;5064156;28;20055;-72
2023/05/09 01:43:42;;;;;;;139.43;57.95;;;;;;;17.52;50.62;101786.34;5028983;28;20550;-71
2023/05/09 01:46:08;;;;;;;139.57;57.05;;;;;;;17.53;50.72;101771.34;5031487;28;20087;-71
2023/05/09 01:48:35;;;;;;;138.90;55.97;;;;;;;17.52;51.24;101780.16;5035762;28;20025;-71
2023/05/09 01:51:01;;;;;;;139.18;56.63;;;;;;;17.51;51.39;101778.47;5040607;28;20025;-71
2023/05/09 01:53:27;;;;;;;139.63;57.60;;;;;;;17.51;51.95;101781.09;5060172;28;20100;-70
2023/05/09 01:55:53;;;;;;;143.52;56.53;;;;;;;17.51;50.85;101786.38;5053680;28;20029;-71
2023/05/09 01:58:20;;;;;;;136.40;56.08;;;;;;;17.50;51.43;101787.28;5056032;28;20017;-71
2023/05/09 02:00:47;;;;;;;135.43;56.40;;;;;;;17.50;51.24;101789.94;5048286;28;20482;-70
2023/05/09 02:03:13;;;;;;;137.32;57.47;;;;;;;17.49;51.01;101790.84;5049112;28;20029;-71
2023/05/09 02:05:38;;;;;;;135.88;56.17;;;;;;;17.49;51.09;101790.84;5044994;28;20102;-71
2023/05/09 02:08:04;;;;;;;137.65;56.90;;;;;;;17.48;51.14;101800.53;5038128;28;20134;-70
2023/05/09 02:10:30;;;;;;;138.90;55.95;;;;;;;17.48;51.40;101804.94;5034549;28;20426;-71
2023/05/09 02:12:56;;;;;;;137.20;56.85;;;;;;;17.47;51.18;101797.94;5029501;28;20075;-71
2023/05/09 02:15:21;;;;;;;140.30;60.17;;;;;;;17.48;51.84;101804.94;5032474;28;20546;-71
2023/05/09 02:17:47;;;;;;;149.60;59.42;;;;;;;17.47;50.88;101798.81;5040058;28;20163;-71
2023/05/09 02:20:13;;;;;;;145.63;57.03;;;;;;;17.45;51.31;101790.06;5041070;28;20025;-71
2023/05/09 02:22:43;;;;;;;134.95;55.80;;;;;;;17.44;51.05;101782.16;5064440;28;20487;-71
2023/05/09 02:25:10;;;;;;;135.70;56.15;;;;;;;17.42;51.04;101779.56;5048808;28;20025;-71
2023/05/09 02:27:37;;;;;;;135.82;55.53;;;;;;;17.43;50.80;101780.44;5057095;28;20020;-71
2023/05/09 02:30:05;;;;;;;137.93;56.83;;;;;;;17.41;50.70;101772.56;5048081;28;20067;-71
2023/05/09 02:32:33;;;;;;;141.52;56.03;;;;;;;17.38;50.60;101767.34;5067231;28;20108;-71
2023/05/09 02:35:00;;;;;;;137.70;56.25;;;;;;;17.38;51.37;101760.31;5036482;28;20033;-70
2023/05/09 02:37:25;;;;;;;140.80;56.88;;;;;;;17.37;51.06;101761.22;5037897;28;20028;-70
2023/05/09 02:39:51;;;;;;;142.60;56.65;;;;;;;17.36;51.21;101759.47;5047937;28;20473;-69
2023/05/09 02:42:25;;;;;;;134.68;54.72;;;;;;;17.35;51.37;101760.38;5069958;28;20029;-70
2023/05/09 02:44:51;;;;;;;137.38;57.05;;;;;;;17.35;51.20;101746.31;5073390;28;20112;-72
2023/05/09 02:47:17;;;;;;;131.15;55.08;;;;;;;17.34;50.55;101747.22;5051034;28;20029;-71
2023/05/09 02:49:42;;;;;;;132.18;55.10;;;;;;;17.33;51.34;101753.41;5040554;28;20030;-72
2023/05/09 02:52:08;;;;;;;134.50;55.10;;;;;;;17.33;51.31;101749.00;5029566;28;20087;-72
2023/05/09 02:54:33;;;;;;;134.88;55.75;;;;;;;17.34;51.36;101756.03;5051757;28;20111;-72
2023/05/09 02:56:58;;;;;;;135.27;54.90;;;;;;;17.33;51.59;101748.13;5045344;28;20463;-71
2023/05/09 02:59:25;;;;;;;135.77;55.63;;;;;;;17.32;51.66;101747.28;5038198;28;20093;-69
2023/05/09 03:01:50;;;;;;;134.48;54.65;;;;;;;17.33;51.33;101748.13;5056273;28;20495;-71
2023/05/09 03:04:16;;;;;;;153.65;58.47;;;;;;;17.31;51.84;101745.53;5071724;28;20438;-70
2023/05/09 03:06:42;;;;;;;134.18;55.90;;;;;;;17.33;52.41;101748.13;5059544;28;20028;-71
2023/05/09 03:09:07;;;;;;;135.90;55.47;;;;;;;17.33;52.67;101741.09;5048186;28;20434;-71
2023/05/09 03:11:35;;;;;;;127.60;54.10;;;;;;;17.32;51.77;101736.72;5035671;28;20092;-71
2023/05/09 03:14:00;;;;;;;132.98;55.22;;;;;;;17.33;52.10;101733.16;5043511;28;20486;-71
2023/05/09 03:16:26;;;;;;;133.27;55.20;;;;;;;17.32;51.67;101731.44;5050272;28;20032;-71
2023/05/09 03:18:51;;;;;;;137.30;56.22;;;;;;;17.30;51.80;101743.81;5041965;28;20501;-71
2023/05/09 03:21:16;;;;;;;135.18;55.20;;;;;;;17.30;52.00;101733.25;5072866;28;20115;-70
2023/05/09 03:23:42;;;;;;;139.82;56.20;;;;;;;17.27;51.18;101730.69;5059768;28;20112;-70
2023/05/09 03:26:07;;;;;;;140.73;56.03;;;;;;;17.27;51.39;101737.75;5070689;28;20040;-70
2023/05/09 03:28:32;;;;;;;143.15;57.08;;;;;;;17.26;51.68;101725.44;5042989;28;20060;-71
2023/05/09 03:30:58;;;;;;;139.52;56.30;;;;;;;17.24;51.66;101718.44;5052953;28;20078;-72
2023/05/09 03:33:23;;;;;;;133.88;55.55;;;;;;;17.24;52.35;101725.50;5052637;28;20067;-71
2023/05/09 03:35:48;;;;;;;132.90;55.35;;;;;;;17.26;51.68;101730.72;5045841;28;20033;-71
2023/05/09 03:38:14;;;;;;;148.43;57.35;;;;;;;17.24;51.92;101721.06;5035963;28;20092;-70
2023/05/09 03:40:39;;;;;;;136.48;55.75;;;;;;;17.25;51.67;101719.31;5044820;28;20385;-70
2023/05/09 03:43:05;;;;;;;134.93;55.35;;;;;;;17.24;51.45;101720.22;5054923;28;20037;-70
2023/05/09 03:45:30;;;;;;;136.48;55.30;;;;;;;17.24;52.66;101718.44;5062058;28;20016;-70
2023/05/09 03:47:56;;;;;;;137.60;60.58;;;;;;;17.24;52.48;101718.44;5069339;28;20099;-70
2023/05/09 03:50:21;;;;;;;158.32;69.47;;;;;;;17.26;52.65;101715.78;5046793;28;20029;-70
2023/05/09 03:52:46;;;;;;;142.63;65.15;;;;;;;17.28;51.95;101718.38;5033538;28;20489;-70
2023/05/09 03:55:12;;;;;;;139.50;59.70;;;;;;;17.26;52.46;101715.78;5050886;28;20025;-71
2023/05/09 03:57:37;;;;;;;140.75;63.90;;;;;;;17.26;52.20;101710.50;5037282;28;20424;-71
2023/05/09 04:00:04;;;;;;;143.70;69.32;;;;;;;17.26;52.18;101707.84;5038925;28;20562;-72
2023/05/09 04:02:31;;;;;;;142.45;64.82;;;;;;;17.26;51.70;101709.59;5045266;28;20025;-70
2023/05/09 04:04:56;;;;;;;136.13;66.47;;;;;;;17.26;52.28;101702.56;5052098;28;20025;-70
2023/05/09 04:07:22;;;;;;;140.93;67.65;;;;;;;17.27;51.74;101706.91;5061786;28;20047;-71
2023/05/09 04:09:48;;;;;;;140.73;58.30;;;;;;;17.26;51.96;101692.00;5046930;28;20041;-72
2023/05/09 04:12:13;;;;;;;152.82;59.95;;;;;;;17.27;52.21;101700.78;5038000;28;20506;-71
2023/05/09 04:14:39;;;;;;;141.50;66.07;;;;;;;17.28;52.67;101702.53;5042035;28;20068;-71
2023/05/09 04:17:04;;;;;;;142.55;67.80;;;;;;;17.28;52.18;101700.75;5043176;28;20047;-71
2023/05/09 04:19:29;;;;;;;141.18;62.88;;;;;;;17.29;52.19;101705.13;5045801;28;20021;-70
2023/05/09 04:21:55;;;;;;;143.38;57.25;;;;;;;17.29;52.00;101699.84;5048298;28;20112;-70
2023/05/09 04:24:20;;;;;;;162.07;60.08;;;;;;;17.30;51.88;101695.41;5030441;28;20020;-70
2023/05/09 04:26:46;;;;;;;143.35;56.38;;;;;;;17.32;52.37;101696.25;5041850;28;20071;-70
2023/05/09 04:29:11;;;;;;;141.30;56.60;;;;;;;17.32;51.92;101689.19;5048645;28;20155;-69
2023/05/09 04:31:37;;;;;;;146.32;56.90;;;;;;;17.33;51.98;101690.91;5047500;28;20497;-70
2023/05/09 04:34:02;;;;;;;143.70;57.63;;;;;;;17.32;51.41;101691.81;5057631;28;20379;-70
2023/05/09 04:36:27;;;;;;;135.07;55.92;;;;;;;17.34;51.53;101699.69;5052900;28;20028;-70
2023/05/09 04:38:53;;;;;;;159.68;59.42;;;;;;;17.34;52.11;101692.66;5058322;22;20037;-72
2023/05/09 04:41:18;;;;;;;138.98;56.97;;;;;;;17.34;51.43;101697.94;5042226;28;20021;-73
2023/05/09 04:43:43;;;;;;;137.52;56.65;;;;;;;17.35;51.71;101697.00;5048460;28;20063;-74
2023/05/09 04:46:09;;;;;;;136.68;56.47;;;;;;;17.36;51.64;101680.25;5044360;28;20128;-75
2023/05/09 04:48:34;;;;;;;152.88;58.97;;;;;;;17.38;51.55;101681.09;5039447;28;20021;-73
2023/05/09 04:51:00;;;;;;;155.73;60.08;;;;;;;17.38;50.85;101673.16;5046214;28;20033;-73
2023/05/09 04:53:27;;;;;;;141.82;56.35;;;;;;;17.39;51.62;101666.97;5041222;28;20021;-73
2023/05/09 04:55:53;;;;;;;142.98;56.92;;;;;;;17.38;51.62;101669.66;5047462;28;20033;-73
2023/05/09 04:58:18;;;;;;;146.55;58.47;;;;;;;17.40;51.80;101667.84;5052106;28;20462;-74
2023/05/09 05:00:43;;;;;;;142.25;57.05;;;;;;;17.42;51.13;101670.44;5068808;28;20040;-73
2023/05/09 05:03:09;;;;;;;141.35;58.70;;;;;;;17.42;51.09;101670.44;5071205;28;20021;-73
2023/05/09 05:05:34;;;;;;;143.07;57.10;;;;;;;17.44;51.88;101665.97;5070758;28;20093;-73
2023/05/09 05:07:59;;;;;;;132.00;55.22;;;;;;;17.44;51.65;101668.59;5071068;28;20024;-73
2023/05/09 05:10:25;;;;;;;139.68;57.83;;;;;;;17.45;51.90;101663.28;5070181;28;20474;-73
2023/05/09 05:12:50;;;;;;;135.38;56.92;;;;;;;17.47;52.05;101663.25;5070781;28;20038;-73
2023/05/09 05:15:18;;;;;;;137.48;56.88;;;;;;;17.48;51.84;101664.94;5070399;28;20047;-73
2023/05/09 05:17:43;;;;;;;139.93;57.97;;;;;;;17.47;52.17;101665.88;5071644;28;20024;-73
2023/05/09 05:20:09;;;;;;;140.10;56.63;;;;;;;17.47;51.49;101665.88;5070488;28;20023;-73
2023/05/09 05:22:35;;;;;;;136.23;57.50;;;;;;;17.46;51.83;101661.50;5070445;28;20059;-72
2023/05/09 05:25:02;;;;;;;138.80;57.35;;;;;;;17.48;52.54;101663.19;5070123;28;20027;-72
2023/05/09 05:27:27;;;;;;;137.18;56.58;;;;;;;17.51;52.23;101663.09;5070701;28;20511;-73
2023/05/09 05:29:53;;;;;;;154.77;59.33;;;;;;;17.51;51.77;101662.25;5071210;28;20032;-72
2023/05/09 05:32:18;;;;;;;146.13;57.42;;;;;;;17.55;52.75;101663.88;5053596;28;20465;-73
2023/05/09 05:34:43;;;;;;;135.13;56.03;;;;;;;17.55;52.36;101659.44;5053433;28;20028;-72
2023/05/09 05:37:09;;;;;;;137.07;56.90;;;;;;;17.59;52.81;101652.31;5071640;28;20050;-73
2023/05/09 05:39:34;;;;;;;138.00;57.10;;;;;;;17.59;52.16;101644.38;5062058;28;20477;-73
2023/05/09 05:41:59;;;;;;;133.40;56.03;;;;;;;17.61;52.46;101634.63;5052498;28;20496;-74
2023/05/09 05:44:25;;;;;;;148.38;58.67;;;;;;;17.64;52.67;101638.94;5068575;28;20377;-73
2023/05/09 05:46:50;;;;;;;140.80;57.90;;;;;;;17.66;52.63;101637.13;5071101;28;20028;-73
2023/05/09 05:49:15;;;;;;;145.38;58.80;;;;;;;17.68;52.54;101628.25;5069156;28;20400;-73
2023/05/09 05:51:40;;;;;;;143.85;58.25;;;;;;;17.69;52.13;101637.88;5053887;28;20620;-73
2023/05/09 05:54:06;;;;;;;149.35;58.45;;;;;;;17.70;52.33;101630.84;5069953;28;20031;-72
2023/05/09 05:56:31;;;;;;;136.60;57.72;;;;;;;17.70;52.39;101638.78;5053795;28;20039;-73
2023/05/09 05:58:56;;;;;;;144.32;60.38;;;;;;;17.71;52.47;101638.72;5074004;28;20028;-73
2023/05/09 06:01:22;;;;;;;139.93;58.00;;;;;;;17.74;52.54;101641.25;5075279;28;20048;-74
2023/05/09 06:03:53;;;;;;;144.02;58.92;;;;;;;17.79;51.64;101634.97;5075167;28;20477;-73
2023/05/09 06:06:18;;;;;;;140.75;58.85;;;;;;;17.91;50.36;101645.16;5073709;28;20166;-73
2023/05/09 06:08:44;;;;;;;134.55;58.78;;;;;;;18.38;48.97;101629.53;5057024;28;20123;-73
2023/05/09 06:11:10;;;;;;;141.27;60.08;;;;;;;19.12;48.10;101630.50;5074038;28;20465;-73
2023/05/09 06:13:35;;;;;;;130.50;58.60;;;;;;;19.81;46.18;101627.88;5073832;28;20032;-73
2023/05/09 06:16:01;;;;;;;136.85;59.78;;;;;;;20.39;44.87;101621.91;5074726;28;20028;-73
2023/05/09 06:18:27;;;;;;;140.77;59.60;;;;;;;20.86;43.78;101614.63;5075159;28;20031;-74
2023/05/09 06:20:53;;;;;;;129.27;57.88;;;;;;;21.25;42.06;101619.03;5074944;28;20021;-74
2023/05/09 06:23:21;;;;;;;147.40;62.45;;;;;;;21.57;41.75;101614.06;5073520;28;20036;-73
2023/05/09 06:25:46;;;;;;;133.45;59.67;;;;;;;21.83;40.98;101603.91;5074569;28;20020;-73
2023/05/09 06:28:12;;;;;;;143.75;60.33;;;;;;;22.04;40.36;101594.03;5074632;28;20023;-74
2023/05/09 06:30:37;;;;;;;139.88;61.53;;;;;;;22.22;39.54;101590.44;5074815;28;20485;-74
2023/05/09 06:33:02;;;;;;;139.10;61.63;;;;;;;22.37;40.33;101586.13;5074806;28;20020;-74
2023/05/09 06:35:28;;;;;;;137.52;61.13;;;;;;;22.50;39.18;101574.88;5073030;28;20040;-74
2023/05/09 06:37:53;;;;;;;151.95;64.05;;;;;;;22.61;39.36;101577.81;5071617;28;20067;-73
2023/05/09 06:40:18;;;;;;;152.98;62.33;;;;;;;22.66;39.26;101575.78;5066505;28;20055;-73
2023/05/09 06:42:44;;;;;;;146.65;61.92;;;;;;;22.72;39.07;101578.09;5073386;28;20032;-74
2023/05/09 06:45:10;;;;;;;140.48;61.20;;;;;;;22.78;39.82;101572.47;5073859;28;20474;-73
2023/05/09 06:47:35;;;;;;;140.82;61.47;;;;;;;22.82;39.62;101569.63;5073666;28;20612;-74
2023/05/09 06:50:01;;;;;;;139.13;61.65;;;;;;;22.84;40.22;101565.94;5072003;28;20378;-74
2023/05/09 06:52:26;;;;;;;137.07;61.15;;;;;;;22.87;39.63;101563.09;5073228;28;20496;-73
2023/05/09 06:54:52;;;;;;;139.30;60.92;;;;;;;22.90;40.03;101562.06;5072849;28;20026;-73
2023/05/09 06:57:17;;;;;;;144.60;61.85;;;;;;;23.01;39.06;101549.00;5067549;28;20223;-72
2023/05/09 06:59:43;;;;;;;141.77;62.42;;;;;;;23.34;39.71;101560.56;5046756;28;20018;-74
2023/05/09 07:02:09;;;;;;;139.40;62.15;;;;;;;23.35;36.65;101562.31;5038899;28;20021;-71
2023/05/09 07:04:34;;;;;;;142.55;63.05;;;;;;;22.98;37.50;101557.19;5039433;28;20483;-69
2023/05/09 07:06:59;;;;;;;150.77;65.03;;;;;;;22.72;35.69;101558.59;5035444;28;20059;-71
2023/05/09 07:09:27;;;;;;;143.38;62.65;;;;;;;22.38;35.75;101555.91;5025851;28;20070;-71
2023/05/09 07:11:55;;;;;;;151.57;64.38;;;;;;;22.19;36.82;101556.00;5052062;28;20025;-70
2023/05/09 07:14:21;;;;;;;160.40;65.82;;;;;;;22.05;36.16;101543.41;5037859;28;20496;-70
2023/05/09 07:16:46;;;;;;;142.85;62.88;;;;;;;22.14;35.31;101546.53;5042959;28;20025;-71
2023/05/09 07:19:11;;;;;;;158.25;64.75;;;;;;;21.98;36.34;101549.09;5043100;28;20024;-70
2023/05/09 07:21:37;;;;;;;146.27;63.95;;;;;;;21.89;35.93;101547.78;5038045;28;20025;-70
2023/05/09 07:24:02;;;;;;;155.15;64.28;;;;;;;21.99;35.12;101543.72;5052494;28;20104;-70
2023/05/09 07:26:28;;;;;;;143.43;64.07;;;;;;;22.04;35.43;101547.00;5049912;28;20053;-70
2023/05/09 07:28:53;;;;;;;140.68;63.22;;;;;;;21.88;34.67;101535.41;5040214;28;20109;-70
2023/05/09 07:31:18;;;;;;;145.90;64.18;;;;;;;21.90;35.89;101538.88;5039970;28;20083;-70
2023/05/09 07:33:44;;;;;;;152.60;64.03;;;;;;;21.85;35.21;101548.88;5049934;28;20501;-70
2023/05/09 07:36:12;;;;;;;141.05;63.80;;;;;;;21.77;35.46;101527.97;5035853;28;20031;-70
2023/05/09 07:38:38;;;;;;;142.32;64.32;;;;;;;21.68;34.84;101521.34;5048019;28;20367;-71
2023/05/09 07:41:04;;;;;;;145.68;63.20;;;;;;;21.71;35.51;101515.84;5052135;28;20051;-70
2023/05/09 07:43:29;;;;;;;144.43;62.38;;;;;;;21.75;34.52;101521.91;5051925;28;20032;-70
2023/05/09 07:45:54;;;;;;;139.88;62.05;;;;;;;21.76;34.83;101511.16;5045858;28;20033;-70
2023/05/09 07:48:20;;;;;;;143.52;62.17;;;;;;;21.73;34.78;101511.34;5044598;28;20040;-69
2023/05/09 07:50:45;;;;;;;140.48;64.53;;;;;;;21.79;34.38;101496.88;5043760;28;20459;-70
2023/05/09 07:53:10;;;;;;;142.50;62.75;;;;;;;21.82;34.88;101488.72;5039945;28;20037;-69
2023/05/09 07:55:36;;;;;;;144.23;62.10;;;;;;;21.80;35.36;101479.09;5036094;28;20021;-68
2023/05/09 07:58:01;;;;;;;140.52;62.00;;;;;;;21.81;34.22;101476.38;5046202;28;20112;-68
2023/05/09 08:00:26;;;;;;;146.88;63.30;;;;;;;21.74;34.40;101467.84;5051322;28;21871;-70
2023/05/09 08:02:52;;;;;;;149.93;63.88;;;;;;;21.80;34.76;101495.06;5037886;28;20079;-71
2023/05/09 08:05:18;;;;;;;146.80;63.15;;;;;;;21.75;34.70;101466.91;5032202;28;20112;-71
2023/05/09 08:07:43;;;;;;;146.95;62.13;;;;;;;21.79;35.34;101464.97;5039660;28;20455;-70
2023/05/09 08:10:09;;;;;;;144.60;63.95;;;;;;;21.83;35.57;101462.97;5036658;28;20402;-72
2023/05/09 08:12:34;;;;;;;143.70;62.88;;;;;;;21.83;35.56;101474.50;5047182;28;20028;-71
2023/05/09 08:14:59;;;;;;;143.35;62.35;;;;;;;21.83;35.70;101462.97;5032076;28;20018;-72
2023/05/09 08:17:25;;;;;;;137.18;61.75;;;;;;;21.83;36.31;101463.88;5042207;28;20039;-72
2023/05/09 08:19:50;;;;;;;144.05;63.15;;;;;;;21.82;37.07;101461.28;5047510;28;20029;-72
2023/05/09 08:22:17;;;;;;;140.32;63.13;;;;;;;21.80;36.88;101457.84;5052690;28;20024;-72
2023/05/09 08:24:42;;;;;;;144.18;62.50;;;;;;;21.80;36.69;101455.16;5051110;28;20025;-71
2023/05/09 08:27:08;;;;;;;144.18;63.28;;;;;;;21.73;37.08;101446.66;5052591;28;20040;-71
2023/05/09 08:29:33;;;;;;;143.60;61.90;;;;;;;21.70;37.25;101452.13;5052455;28;20071;-71
2023/05/09 08:31:58;;;;;;;137.63;62.33;;;;;;;21.71;37.23;101444.06;5051942;28;20420;-71
2023/05/09 08:34:24;;;;;;;143.13;62.58;;;;;;;21.72;37.40;101439.59;5051025;28;20426;-72
2023/05/09 08:36:49;;;;;;;139.55;62.35;;;;;;;21.72;37.64;101442.25;5034540;28;20438;-71
2023/05/09 08:39:14;;;;;;;139.48;62.10;;;;;;;21.72;38.07;101444.91;5050832;28;20440;-71
2023/05/09 08:41:41;;;;;;;137.55;61.58;;;;;;;21.71;37.77;101438.75;5051168;28;20048;-72
2023/05/09 08:44:06;;;;;;;149.30;64.07;;;;;;;21.72;37.70;101445.81;5050780;28;20029;-72
2023/05/09 08:46:36;;;;;;;138.38;61.25;;;;;;;21.75;37.83;101444.78;5051118;28;20047;-71
2023/05/09 08:49:04;;;;;;;140.07;61.72;;;;;;;21.79;37.55;101441.03;5034157;28;20032;-72
2023/05/09 08:51:31;;;;;;;134.10;61.88;;;;;;;21.84;37.83;101431.03;5051012;28;20406;-71
2023/05/09 08:53:56;;;;;;;140.68;60.78;;;;;;;21.90;38.15;101435.16;5050801;28;20044;-72
2023/05/09 08:56:22;;;;;;;140.88;61.53;;;;;;;21.94;37.55;101434.06;5051787;28;20512;-72
2023/05/09 08:58:47;;;;;;;141.90;69.97;;;;;;;21.97;37.93;101419.75;5052032;28;20386;-72
2023/05/09 09:01:13;;;;;;;142.15;70.88;;;;;;;22.01;37.71;101414.16;5050902;28;20059;-72
2023/05/09 09:03:38;;;;;;;144.27;72.55;;;;;;;22.03;37.25;101417.63;5034250;28;20024;-72
2023/05/09 09:06:06;;;;;;;140.63;67.45;;;;;;;22.05;37.60;101418.38;5050432;28;20344;-72
2023/05/09 09:08:33;;;;;;;147.30;71.22;;;;;;;22.04;37.57;101410.47;5034099;28;20098;-72
2023/05/09 09:10:59;;;;;;;143.63;70.03;;;;;;;22.04;37.46;101408.66;5034092;28;20021;-73
2023/05/09 09:13:24;;;;;;;139.20;61.63;;;;;;;22.02;37.36;101410.56;5050482;28;20023;-73
2023/05/09 09:15:52;;;;;;;138.38;61.88;;;;;;;22.01;37.81;101408.00;5033859;28;20071;-72
2023/05/09 09:18:21;;;;;;;141.52;61.50;;;;;;;21.97;37.85;101401.13;5051591;28;20056;-72
2023/05/09 09:20:49;;;;;;;141.55;63.42;;;;;;;21.92;37.66;101404.88;5034269;28;20394;-72
2023/05/09 09:23:18;;;;;;;143.63;62.30;;;;;;;21.91;38.21;101396.97;5050492;28;20033;-72
2023/05/09 09:25:47;;;;;;;141.65;61.38;;;;;;;21.89;37.99;101397.03;5050214;28;20016;-72
2023/05/09 09:28:12;;;;;;;141.23;62.17;;;;;;;21.87;37.86;101392.75;5050297;28;20025;-72
2023/05/09 09:30:46;;;;;;;158.93;104.40;;;;;;;21.87;38.39;101390.09;5051723;28;20087;-72
2023/05/09 09:33:18;;;;;;;146.88;76.15;;;;;;;21.87;38.05;101392.75;5049517;28;20021;-72
2023/05/09 09:35:44;;;;;;;140.50;62.60;;;;;;;21.86;38.27;101391.06;5050447;28;20029;-72
2023/05/09 09:38:09;;;;;;;137.40;61.10;;;;;;;21.83;38.10;101386.75;5050226;28;20028;-72
2023/05/09 09:40:38;;;;;;;129.52;60.47;;;;;;;21.83;38.22;101385.88;5050686;28;20021;-72
2023/05/09 09:43:05;;;;;;;137.05;61.53;;;;;;;21.78;37.98;101376.34;5051721;28;20384;-72
2023/05/09 09:45:31;;;;;;;138.57;65.90;;;;;;;21.77;38.30;101373.75;5050099;28;20104;-71
2023/05/09 09:47:56;;;;;;;144.23;63.55;;;;;;;21.73;38.34;101373.09;5050299;28;20044;-72
2023/05/09 09:50:23;;;;;;;147.75;64.75;;;;;;;21.68;38.40;101372.47;5049969;28;20498;-72
2023/05/09 09:52:49;;;;;;;138.68;62.63;;;;;;;21.64;38.73;101373.56;5051361;28;20032;-72
2023/05/09 09:55:15;;;;;;;142.35;63.50;;;;;;;21.56;38.72;101365.97;5033181;28;20107;-72
2023/05/09 09:57:43;;;;;;;156.70;97.60;;;;;;;21.54;38.94;101364.34;5051370;28;20547;-72
2023/05/09 10:00:10;;;;;;;146.30;71.00;;;;;;;21.50;38.58;101354.75;5050286;28;20017;-71
2023/05/09 10:02:46;;;;;;;140.07;67.22;;;;;;;21.46;38.87;101354.09;5050089;28;20474;-72
2023/05/09 10:05:17;;;;;;;146.60;72.78;;;;;;;21.40;38.87;101360.53;5033115;28;20021;-72
2023/05/09 10:07:43;;;;;;;134.73;60.92;;;;;;;21.37;39.03;101352.75;5050104;28;20051;-71
2023/05/09 10:10:08;;;;;;;143.85;62.83;;;;;;;21.32;39.19;101351.25;5051276;28;20029;-72
2023/05/09 10:12:37;;;;;;;137.20;61.45;;;;;;;21.27;39.26;101341.72;5050137;28;20124;-72
2023/05/09 10:15:03;;;;;;;140.20;61.03;;;;;;;21.25;39.42;101348.06;5033032;28;20021;-73
2023/05/09 10:17:30;;;;;;;138.23;61.78;;;;;;;21.23;39.63;101326.03;5051146;28;20025;-72
2023/05/09 10:19:55;;;;;;;137.35;62.45;;;;;;;21.19;39.51;101322.66;5050244;28;20017;-72
2023/05/09 10:22:21;;;;;;;128.48;59.40;;;;;;;21.18;39.73;101314.78;5049889;28;20044;-72
2023/05/09 10:24:50;;;;;;;139.25;63.28;;;;;;;21.12;39.66;101318.63;5049693;28;20029;-72
2023/05/09 10:27:18;;;;;;;139.32;62.50;;;;;;;21.07;39.58;101312.66;5049980;28;20037;-72
2023/05/09 10:29:45;;;;;;;139.57;61.95;;;;;;;21.05;39.94;101318.06;5033188;28;20032;-72
2023/05/09 10:32:16;;;;;;;144.57;62.88;;;;;;;21.01;39.87;101311.19;5049352;28;20021;-72
2023/05/09 10:34:43;;;;;;;140.15;62.30;;;;;;;20.97;39.76;101304.31;5050245;28;20086;-72
2023/05/09 10:37:08;;;;;;;142.27;62.30;;;;;;;20.96;39.96;101302.59;5049764;28;20485;-72
2023/05/09 10:39:35;;;;;;;138.88;62.42;;;;;;;20.93;39.90;101308.06;5070814;22;20079;-73
2023/05/09 10:42:01;;;;;;;138.80;61.80;;;;;;;20.92;39.93;101306.34;5032988;28;20060;-73
2023/05/09 10:44:27;;;;;;;139.80;63.65;;;;;;;20.88;39.87;101284.38;5050894;28;20300;-73
2023/05/09 10:46:52;;;;;;;139.63;62.13;;;;;;;20.85;40.10;101287.19;5054281;28;20092;-73
2023/05/09 10:49:18;;;;;;;137.57;61.78;;;;;;;20.82;39.84;101278.50;5052801;28;20160;-73
2023/05/09 10:51:44;;;;;;;137.68;61.40;;;;;;;20.77;40.35;101281.41;5053146;28;20029;-73
2023/05/09 10:54:26;;;;;;;145.00;65.60;;;;;;;20.72;40.42;101268.38;5054509;28;20040;-72
2023/05/09 10:56:52;;;;;;;139.18;61.35;;;;;;;20.66;40.20;101268.63;5052541;28;20033;-73
2023/05/09 10:59:42;;;;;;;141.98;65.95;;;;;;;20.61;40.26;101265.34;5052804;28;20021;-73